Terminal Aerodrome Forecast
Issued by NWS Cleveland, OH

Home | Current Version | Previous Version | Graphics & Text | Print | Product List | Glossary On
Versions: 1 2 3 4 5 6 7 8 9 10 11 12
000
FTUS41 KCLE 291735
TAFTOL
TAF
KTOL 291735Z 2918/3018 23007KT P6SM VCTS SCT040CB BKN250
      TEMPO 2918/2922 3SM -TSRA SCT012 OVC025CB
     FM292300 28008KT P6SM BKN040 OVC120
     FM300500 26006KT P6SM SCT250=

USA.gov is the U.S. government's official web portal to all federal, state and local government web resources and services.